Time;durP1;ratioP1;P1;durP2;ratioP2;P2;SDS_P1;SDS_P2;PMS_P1;PMS_P2;Temp;Humidity;BMP_temperature;BMP_pressure;BME280_temperature;BME280_humidity;BME280_pressure;Samples;Min_cycle;Max_cycle;Signal;HPM_P1;HPM_P2
2022/04/08 00:00:20;;;;;;;32.15;4.38;;;;;;;;;;5023086;28;20707;-67
2022/04/08 00:02:45;;;;;;;26.25;4.22;;;;;;;;;;5019888;28;21951;-67
2022/04/08 00:05:11;;;;;;;26.90;4.65;;;;;;;;;;5005532;28;20065;-66
2022/04/08 00:07:40;;;;;;;40.63;5.32;;;;;;;;;;5021248;28;20100;-68
2022/04/08 00:10:06;;;;;;;41.20;6.20;;;;;;;;;;5020826;28;20605;-66
2022/04/08 00:12:32;;;;;;;38.30;6.32;;;;;;;;;;5052863;28;20040;-66
2022/04/08 00:15:00;;;;;;;46.33;5.65;;;;;;;;;;5019670;28;20040;-66
2022/04/08 00:17:26;;;;;;;30.25;4.07;;;;;;;;;;5021286;28;20717;-66
2022/04/08 00:19:51;;;;;;;32.63;4.72;;;;;;;;;;5023689;28;20507;-65
2022/04/08 00:22:18;;;;;;;32.55;4.85;;;;;;;;;;5020539;28;20044;-66
2022/04/08 00:24:44;;;;;;;32.70;4.07;;;;;;;;;;5020999;28;20024;-67
2022/04/08 00:27:09;;;;;;;36.83;6.13;;;;;;;;;;5019685;28;20099;-66
2022/04/08 00:29:35;;;;;;;27.05;4.82;;;;;;;;;;5021994;28;20596;-66
2022/04/08 00:32:03;;;;;;;31.00;5.15;;;;;;;;;;5024107;28;20634;-67
2022/04/08 00:34:28;;;;;;;26.45;4.07;;;;;;;;;;5019769;28;20624;-66
2022/04/08 00:36:54;;;;;;;40.40;5.28;;;;;;;;;;5041431;28;20111;-67
2022/04/08 00:39:20;;;;;;;43.58;7.55;;;;;;;;;;5021594;28;20216;-66
2022/04/08 00:41:45;;;;;;;38.80;6.85;;;;;;;;;;5019464;28;20044;-67
2022/04/08 00:44:11;;;;;;;27.52;3.97;;;;;;;;;;5020091;28;20018;-67
2022/04/08 00:46:39;;;;;;;30.48;4.88;;;;;;;;;;5036124;28;20040;-67
2022/04/08 00:49:05;;;;;;;38.17;5.63;;;;;;;;;;5020321;28;20267;-67
2022/04/08 00:51:30;;;;;;;33.78;4.78;;;;;;;;;;5028646;28;20079;-67
2022/04/08 00:53:58;;;;;;;27.63;4.30;;;;;;;;;;5020919;28;20159;-66
2022/04/08 00:56:23;;;;;;;35.45;4.45;;;;;;;;;;5018795;28;20523;-66
2022/04/08 00:58:49;;;;;;;29.27;4.50;;;;;;;;;;5006391;28;20037;-67
2022/04/08 01:01:14;;;;;;;38.60;5.53;;;;;;;;;;5022443;28;20501;-66
2022/04/08 01:03:43;;;;;;;31.83;3.97;;;;;;;;;;5019301;28;20180;-67
2022/04/08 01:06:08;;;;;;;38.75;5.43;;;;;;;;;;5051824;28;20037;-67
2022/04/08 01:08:35;;;;;;;39.92;4.63;;;;;;;;;;5021161;28;20028;-65
2022/04/08 01:11:01;;;;;;;34.17;6.03;;;;;;;;;;5020310;28;20029;-67
2022/04/08 01:13:26;;;;;;;29.42;4.80;;;;;;;;;;5036883;28;20163;-67
2022/04/08 01:15:51;;;;;;;18.23;3.60;;;;;;;;;;5035853;28;20123;-66
2022/04/08 01:18:17;;;;;;;29.05;4.78;;;;;;;;;;5006542;28;20084;-67
2022/04/08 01:20:42;;;;;;;31.48;5.15;;;;;;;;;;5019438;28;20059;-67
2022/04/08 01:23:07;;;;;;;22.48;3.72;;;;;;;;;;5019603;28;20041;-67
2022/04/08 01:25:38;;;;;;;28.05;5.57;;;;;;;;;;5022883;28;20486;-68
2022/04/08 01:28:03;;;;;;;26.65;3.85;;;;;;;;;;5005771;28;20074;-67
2022/04/08 01:30:28;;;;;;;37.58;5.93;;;;;;;;;;5020747;28;20348;-67
2022/04/08 01:32:54;;;;;;;29.95;5.13;;;;;;;;;;5019609;28;20095;-66
2022/04/08 01:35:21;;;;;;;23.55;3.95;;;;;;;;;;5020265;28;20263;-66
2022/04/08 01:37:49;;;;;;;35.40;4.25;;;;;;;;;;5019369;28;20037;-67
2022/04/08 01:40:14;;;;;;;19.15;3.53;;;;;;;;;;5020668;28;20477;-67
2022/04/08 01:42:42;;;;;;;30.33;4.90;;;;;;;;;;5019434;28;20065;-67
2022/04/08 01:45:09;;;;;;;24.83;5.38;;;;;;;;;;5020196;28;20060;-67
2022/04/08 01:47:35;;;;;;;35.05;4.68;;;;;;;;;;5019362;28;20031;-67
2022/04/08 01:50:00;;;;;;;32.58;4.85;;;;;;;;;;5018522;28;20060;-67
2022/04/08 01:52:25;;;;;;;24.20;3.80;;;;;;;;;;5019426;28;20112;-68
2022/04/08 01:54:50;;;;;;;32.92;6.22;;;;;;;;;;5020897;28;20204;-67
2022/04/08 01:57:18;;;;;;;24.80;5.20;;;;;;;;;;5019435;28;20041;-68
2022/04/08 01:59:47;;;;;;;36.47;4.63;;;;;;;;;;5034921;28;20120;-67
2022/04/08 02:02:12;;;;;;;37.15;5.57;;;;;;;;;;5049829;28;20582;-66
2022/04/08 02:04:40;;;;;;;24.55;4.45;;;;;;;;;;5018715;28;20052;-66
2022/04/08 02:07:06;;;;;;;25.10;4.40;;;;;;;;;;5023041;28;20513;-66
2022/04/08 02:09:31;;;;;;;32.55;6.00;;;;;;;;;;5019996;28;21825;-66
2022/04/08 02:11:57;;;;;;;37.17;6.38;;;;;;;;;;5027698;28;20098;-67
2022/04/08 02:14:22;;;;;;;39.72;6.25;;;;;;;;;;5019245;28;20598;-66
2022/04/08 02:16:48;;;;;;;42.97;6.78;;;;;;;;;;5020058;28;20116;-66
2022/04/08 02:19:15;;;;;;;23.95;4.30;;;;;;;;;;5020138;28;20041;-67
2022/04/08 02:21:41;;;;;;;32.38;5.20;;;;;;;;;;5020338;28;20124;-66
2022/04/08 02:24:07;;;;;;;29.30;5.57;;;;;;;;;;5018801;28;20036;-66
2022/04/08 02:26:32;;;;;;;40.85;5.95;;;;;;;;;;5018886;28;20090;-67
2022/04/08 02:28:58;;;;;;;29.33;4.70;;;;;;;;;;5019841;28;20033;-68
2022/04/08 02:31:24;;;;;;;34.28;5.20;;;;;;;;;;5050595;28;20500;-67
2022/04/08 02:33:49;;;;;;;27.33;4.15;;;;;;;;;;5019162;28;20110;-67
2022/04/08 02:36:20;;;;;;;48.80;7.03;;;;;;;;;;5021479;28;20048;-67
2022/04/08 02:38:45;;;;;;;36.90;6.90;;;;;;;;;;5020469;28;20055;-67
2022/04/08 02:41:13;;;;;;;33.17;4.32;;;;;;;;;;5017147;28;20279;-65
2022/04/08 02:43:38;;;;;;;39.28;5.25;;;;;;;;;;5017515;28;20107;-67
2022/04/08 02:46:03;;;;;;;33.55;5.65;;;;;;;;;;5018106;28;20111;-67
2022/04/08 02:48:29;;;;;;;28.90;5.53;;;;;;;;;;5019268;28;20051;-68
2022/04/08 02:50:54;;;;;;;30.35;4.45;;;;;;;;;;5017434;28;20427;-67
2022/04/08 02:53:19;;;;;;;31.80;4.90;;;;;;;;;;5019131;28;20029;-68
2022/04/08 02:55:45;;;;;;;31.08;5.15;;;;;;;;;;5020501;28;20037;-67
2022/04/08 02:58:10;;;;;;;38.78;4.70;;;;;;;;;;5017418;28;20028;-67
2022/04/08 03:00:39;;;;;;;25.83;4.25;;;;;;;;;;5016558;28;20051;-66
2022/04/08 03:03:05;;;;;;;28.85;5.18;;;;;;;;;;5005014;28;20036;-65
2022/04/08 03:05:30;;;;;;;28.60;5.10;;;;;;;;;;5017850;28;20150;-66
2022/04/08 03:07:58;;;;;;;23.65;3.95;;;;;;;;;;5006518;28;20101;-67
2022/04/08 03:10:24;;;;;;;21.33;4.30;;;;;;;;;;5049156;28;20640;-66
2022/04/08 03:12:52;;;;;;;29.05;3.85;;;;;;;;;;5017794;28;20048;-66
2022/04/08 03:15:21;;;;;;;39.33;5.97;;;;;;;;;;5004035;28;20413;-67
2022/04/08 03:17:46;;;;;;;28.20;5.15;;;;;;;;;;5018995;28;20520;-67
2022/04/08 03:20:11;;;;;;;24.55;4.30;;;;;;;;;;4988688;28;20645;-67
2022/04/08 03:22:37;;;;;;;33.72;4.68;;;;;;;;;;5016773;28;20491;-68
2022/04/08 03:25:05;;;;;;;25.13;4.43;;;;;;;;;;5016925;28;22214;-67
2022/04/08 03:27:31;;;;;;;32.95;5.88;;;;;;;;;;5018686;28;20097;-68
2022/04/08 03:29:57;;;;;;;23.42;4.03;;;;;;;;;;5015532;28;20382;-66
2022/04/08 03:32:23;;;;;;;26.95;4.80;;;;;;;;;;5017283;28;20110;-67
2022/04/08 03:34:57;;;;;;;41.95;5.35;;;;;;;;;;5016522;28;20042;-66
2022/04/08 03:37:23;;;;;;;28.80;3.63;;;;;;;;;;5016230;28;20094;-66
2022/04/08 03:39:49;;;;;;;38.47;6.18;;;;;;;;;;5016124;28;20083;-66
2022/04/08 03:42:15;;;;;;;37.08;4.43;;;;;;;;;;5017726;28;20204;-67
2022/04/08 03:44:40;;;;;;;36.05;4.65;;;;;;;;;;5048030;28;20447;-66
2022/04/08 03:47:06;;;;;;;39.60;6.15;;;;;;;;;;5020438;28;20056;-66
2022/04/08 03:49:36;;;;;;;29.27;4.40;;;;;;;;;;5021499;28;20728;-65
2022/04/08 03:52:03;;;;;;;31.70;5.22;;;;;;;;;;5017081;28;20106;-66
2022/04/08 03:54:29;;;;;;;30.65;4.38;;;;;;;;;;5018170;28;20187;-66
2022/04/08 03:56:55;;;;;;;37.42;6.18;;;;;;;;;;5017922;28;20412;-66
2022/04/08 03:59:22;;;;;;;27.60;4.85;;;;;;;;;;5016861;28;20249;-65
2022/04/08 04:01:50;;;;;;;31.17;5.07;;;;;;;;;;5017400;28;20127;-67
2022/04/08 04:04:18;;;;;;;33.30;4.63;;;;;;;;;;5016713;28;20445;-67
2022/04/08 04:06:43;;;;;;;35.40;4.82;;;;;;;;;;5017158;28;20044;-67
2022/04/08 04:09:09;;;;;;;36.22;4.82;;;;;;;;;;5015776;28;20029;-67
2022/04/08 04:11:35;;;;;;;28.83;4.10;;;;;;;;;;5017169;28;20032;-66
2022/04/08 04:14:01;;;;;;;32.17;5.43;;;;;;;;;;5020070;28;20461;-66
2022/04/08 04:16:26;;;;;;;30.52;4.38;;;;;;;;;;5019950;28;20039;-66
2022/04/08 04:18:51;;;;;;;38.85;4.85;;;;;;;;;;5018091;28;20538;-66
2022/04/08 04:21:17;;;;;;;36.80;5.00;;;;;;;;;;5017352;28;20035;-66
2022/04/08 04:23:45;;;;;;;40.58;4.85;;;;;;;;;;5017896;28;20041;-66
2022/04/08 04:26:15;;;;;;;38.38;5.53;;;;;;;;;;5018153;28;20207;-67
2022/04/08 04:28:40;;;;;;;29.90;4.10;;;;;;;;;;5018747;28;20473;-66
2022/04/08 04:31:06;;;;;;;29.02;4.22;;;;;;;;;;5015848;28;20060;-66
2022/04/08 04:33:32;;;;;;;29.50;4.10;;;;;;;;;;5014828;28;20037;-65
2022/04/08 04:36:02;;;;;;;37.13;4.47;;;;;;;;;;5016610;28;20051;-67
2022/04/08 04:38:27;;;;;;;31.80;5.57;;;;;;;;;;5018747;28;20147;-66
2022/04/08 04:40:53;;;;;;;34.10;4.45;;;;;;;;;;5050679;28;20044;-67
2022/04/08 04:43:21;;;;;;;36.15;4.72;;;;;;;;;;5040097;28;20123;-66
2022/04/08 04:45:46;;;;;;;31.38;5.18;;;;;;;;;;5021470;28;20098;-66
2022/04/08 04:48:18;;;;;;;40.45;5.38;;;;;;;;;;5023734;28;20032;-67
2022/04/08 04:50:43;;;;;;;36.25;5.68;;;;;;;;;;5018419;28;20155;-67
2022/04/08 04:53:09;;;;;;;33.42;5.00;;;;;;;;;;5021125;28;20144;-68
2022/04/08 04:55:34;;;;;;;28.88;4.50;;;;;;;;;;5006999;28;20450;-69
2022/04/08 04:58:00;;;;;;;33.90;3.88;;;;;;;;;;5020665;28;20028;-67
2022/04/08 05:00:25;;;;;;;30.75;5.43;;;;;;;;;;5018278;28;20033;-66
2022/04/08 05:02:51;;;;;;;24.27;3.97;;;;;;;;;;5050668;28;20098;-68
2022/04/08 05:05:17;;;;;;;26.00;4.40;;;;;;;;;;5020448;28;20060;-68
2022/04/08 05:07:42;;;;;;;24.60;4.35;;;;;;;;;;5052150;28;20040;-66
2022/04/08 05:10:11;;;;;;;39.78;5.43;;;;;;;;;;5019382;28;20032;-67
2022/04/08 05:12:38;;;;;;;27.10;4.25;;;;;;;;;;5020373;28;20036;-67
2022/04/08 05:15:09;;;;;;;30.13;4.88;;;;;;;;;;5020600;28;20036;-66
2022/04/08 05:17:35;;;;;;;31.85;4.72;;;;;;;;;;5019840;28;20033;-68
2022/04/08 05:20:04;;;;;;;22.73;3.70;;;;;;;;;;5017631;28;20116;-66
2022/04/08 05:22:29;;;;;;;26.27;4.53;;;;;;;;;;5023507;28;20135;-66
2022/04/08 05:24:58;;;;;;;25.05;4.25;;;;;;;;;;5018750;28;20029;-65
2022/04/08 05:27:23;;;;;;;26.60;3.88;;;;;;;;;;5019818;28;20044;-67
2022/04/08 05:29:49;;;;;;;28.60;4.28;;;;;;;;;;5019791;28;20025;-67
2022/04/08 05:32:14;;;;;;;27.33;3.80;;;;;;;;;;5051506;28;20112;-67
2022/04/08 05:34:39;;;;;;;36.97;4.85;;;;;;;;;;5017832;28;20065;-67
2022/04/08 05:37:05;;;;;;;29.40;4.28;;;;;;;;;;5019897;28;20454;-65
2022/04/08 05:39:30;;;;;;;26.08;5.43;;;;;;;;;;5018093;28;20033;-66
2022/04/08 05:41:56;;;;;;;31.33;4.63;;;;;;;;;;5018250;28;20041;-66
2022/04/08 05:44:21;;;;;;;33.67;5.25;;;;;;;;;;5018767;28;20744;-66
2022/04/08 05:46:49;;;;;;;26.60;4.55;;;;;;;;;;5018298;28;20031;-66
2022/04/08 05:49:14;;;;;;;36.85;4.63;;;;;;;;;;5003862;28;20045;-67
2022/04/08 05:51:39;;;;;;;26.92;4.25;;;;;;;;;;5019922;28;20036;-67
2022/04/08 05:54:05;;;;;;;30.85;4.80;;;;;;;;;;5022683;28;20080;-66
2022/04/08 05:56:33;;;;;;;30.95;3.65;;;;;;;;;;5018607;28;20029;-68
2022/04/08 05:58:59;;;;;;;26.38;4.18;;;;;;;;;;5016759;28;20175;-66
2022/04/08 06:01:26;;;;;;;34.30;5.13;;;;;;;;;;5017435;28;20362;-67
2022/04/08 06:03:54;;;;;;;28.05;4.32;;;;;;;;;;5020193;28;20045;-67
2022/04/08 06:06:20;;;;;;;30.10;3.90;;;;;;;;;;5020271;28;20052;-66
2022/04/08 06:08:45;;;;;;;29.42;3.58;;;;;;;;;;5020786;28;20048;-67
2022/04/08 06:11:10;;;;;;;27.35;3.88;;;;;;;;;;5020093;28;20166;-66
2022/04/08 06:13:36;;;;;;;23.40;3.90;;;;;;;;;;5018037;28;20033;-67
2022/04/08 06:16:02;;;;;;;35.88;4.13;;;;;;;;;;5049529;28;20112;-66
2022/04/08 06:18:30;;;;;;;23.23;3.60;;;;;;;;;;5016989;28;20033;-67
2022/04/08 06:20:58;;;;;;;26.92;3.78;;;;;;;;;;5016584;28;20428;-67
2022/04/08 06:23:23;;;;;;;33.50;4.85;;;;;;;;;;5048703;28;20041;-67
2022/04/08 06:25:49;;;;;;;28.17;4.75;;;;;;;;;;5019897;28;20045;-66
2022/04/08 06:28:15;;;;;;;29.45;4.80;;;;;;;;;;5018609;28;20124;-67
2022/04/08 06:30:40;;;;;;;30.95;4.00;;;;;;;;;;5014969;28;20033;-67
2022/04/08 06:33:06;;;;;;;33.50;3.90;;;;;;;;;;4988866;28;20461;-67
2022/04/08 06:35:33;;;;;;;21.98;3.88;;;;;;;;;;5018332;28;20385;-67
2022/04/08 06:37:59;;;;;;;24.80;4.40;;;;;;;;;;5048086;28;20044;-67
2022/04/08 06:40:25;;;;;;;30.42;4.32;;;;;;;;;;5016782;28;20395;-67
2022/04/08 06:42:59;;;;;;;29.85;4.20;;;;;;;;;;5016798;28;20495;-66
2022/04/08 06:45:26;;;;;;;20.27;4.13;;;;;;;;;;5018404;28;20032;-67
2022/04/08 06:47:52;;;;;;;20.23;3.95;;;;;;;;;;5020315;28;20094;-66
2022/04/08 06:50:29;;;;;;;24.00;3.38;;;;;;;;;;5017460;28;20028;-67
2022/04/08 06:52:59;;;;;;;19.88;3.05;;;;;;;;;;5017540;28;20088;-67
2022/04/08 06:55:25;;;;;;;21.52;3.60;;;;;;;;;;5016716;28;20041;-68
2022/04/08 06:57:50;;;;;;;24.50;3.03;;;;;;;;;;5019886;28;20029;-67
2022/04/08 07:00:16;;;;;;;20.13;3.72;;;;;;;;;;4986518;28;20051;-67
2022/04/08 07:02:41;;;;;;;34.47;3.72;;;;;;;;;;5018650;28;20090;-68
2022/04/08 07:05:10;;;;;;;23.65;4.07;;;;;;;;;;5017403;28;20304;-66
2022/04/08 07:07:38;;;;;;;29.65;4.50;;;;;;;;;;5020151;28;20024;-68
2022/04/08 07:10:04;;;;;;;22.45;3.50;;;;;;;;;;5038962;28;20170;-68
2022/04/08 07:12:30;;;;;;;21.10;3.50;;;;;;;;;;5026039;28;20032;-68
2022/04/08 07:14:55;;;;;;;20.88;3.83;;;;;;;;;;5018211;28;20448;-67
2022/04/08 07:17:31;;;;;;;24.20;3.70;;;;;;;;;;5017626;28;20182;-67
2022/04/08 07:19:57;;;;;;;25.25;3.60;;;;;;;;;;5016366;28;20045;-67
2022/04/08 07:22:23;;;;;;;26.25;4.00;;;;;;;;;;5016923;28;20330;-67
2022/04/08 07:24:49;;;;;;;21.77;3.58;;;;;;;;;;5017421;28;20029;-67
2022/04/08 07:27:15;;;;;;;16.27;2.67;;;;;;;;;;5019393;28;20025;-67
2022/04/08 07:29:43;;;;;;;21.10;3.45;;;;;;;;;;5019254;28;20021;-66
2022/04/08 07:32:11;;;;;;;20.58;3.97;;;;;;;;;;5017406;28;20128;-66
2022/04/08 07:34:37;;;;;;;22.63;3.47;;;;;;;;;;5019419;28;20028;-67
2022/04/08 07:37:03;;;;;;;19.83;3.50;;;;;;;;;;5034913;28;20091;-67
2022/04/08 07:39:35;;;;;;;19.67;3.30;;;;;;;;;;5015634;28;20948;-67
2022/04/08 07:42:00;;;;;;;23.67;4.20;;;;;;;;;;5019090;28;20140;-67
2022/04/08 07:44:26;;;;;;;18.27;3.47;;;;;;;;;;5015091;28;20025;-67
2022/04/08 07:46:51;;;;;;;18.00;3.50;;;;;;;;;;5020827;28;20030;-66
2022/04/08 07:49:20;;;;;;;20.25;2.90;;;;;;;;;;4998847;28;20358;-66
2022/04/08 07:51:45;;;;;;;18.63;3.72;;;;;;;;;;4998454;28;20024;-66
2022/04/08 07:54:11;;;;;;;20.15;3.63;;;;;;;;;;5003482;28;20034;-66
2022/04/08 07:56:36;;;;;;;19.70;3.63;;;;;;;;;;4986599;28;20260;-66
2022/04/08 07:59:02;;;;;;;20.55;3.60;;;;;;;;;;5030113;28;20037;-67
2022/04/08 08:01:31;;;;;;;13.70;3.22;;;;;;;;;;5021871;28;20029;-67
2022/04/08 08:03:57;;;;;;;22.48;3.40;;;;;;;;;;5018654;28;20055;-67
2022/04/08 08:06:22;;;;;;;20.35;3.70;;;;;;;;;;5017898;28;20029;-67
2022/04/08 08:08:48;;;;;;;23.67;4.45;;;;;;;;;;5014267;28;20044;-67
2022/04/08 08:11:15;;;;;;;19.00;3.05;;;;;;;;;;5021329;28;20025;-68
2022/04/08 08:13:41;;;;;;;15.07;3.17;;;;;;;;;;5020176;28;20369;-68
2022/04/08 08:16:07;;;;;;;18.27;2.95;;;;;;;;;;5019335;28;20040;-67
2022/04/08 08:18:33;;;;;;;18.42;3.50;;;;;;;;;;5052381;28;20033;-67
2022/04/08 08:20:58;;;;;;;20.10;3.35;;;;;;;;;;5019433;28;20072;-67
2022/04/08 08:23:25;;;;;;;18.60;3.45;;;;;;;;;;5017825;28;20508;-67
2022/04/08 08:25:55;;;;;;;17.95;3.10;;;;;;;;;;5050946;28;20025;-67
2022/04/08 08:28:22;;;;;;;13.82;2.90;;;;;;;;;;5021129;28;20028;-66
2022/04/08 08:30:47;;;;;;;12.15;3.17;;;;;;;;;;5036470;28;20415;-67
2022/04/08 08:33:15;;;;;;;17.33;3.05;;;;;;;;;;5025198;28;20036;-66
2022/04/08 08:35:40;;;;;;;23.38;3.50;;;;;;;;;;5019499;28;20721;-67
2022/04/08 08:38:07;;;;;;;20.05;3.25;;;;;;;;;;5020957;28;20024;-67
2022/04/08 08:40:35;;;;;;;17.55;3.55;;;;;;;;;;5018267;28;20056;-66
2022/04/08 08:43:01;;;;;;;16.98;3.38;;;;;;;;;;5052193;28;20099;-67
2022/04/08 08:45:32;;;;;;;21.52;3.85;;;;;;;;;;5036735;28;20028;-65
2022/04/08 08:48:01;;;;;;;16.52;2.95;;;;;;;;;;5022929;28;21829;-66
2022/04/08 08:50:28;;;;;;;19.65;3.33;;;;;;;;;;5022342;28;20020;-67
2022/04/08 08:52:53;;;;;;;13.18;2.60;;;;;;;;;;5022907;28;20033;-67
2022/04/08 08:55:22;;;;;;;16.42;2.63;;;;;;;;;;5023516;28;20179;-67
2022/04/08 08:57:49;;;;;;;15.50;2.40;;;;;;;;;;5022886;28;20060;-66
2022/04/08 09:00:19;;;;;;;15.80;2.80;;;;;;;;;;5027771;28;20079;-66
2022/04/08 09:02:50;;;;;;;10.82;1.98;;;;;;;;;;5014980;28;20040;-67
2022/04/08 09:05:19;;;;;;;16.20;2.50;;;;;;;;;;5036710;28;20049;-66
2022/04/08 09:07:54;;;;;;;10.52;3.10;;;;;;;;;;5017444;28;20402;-67
2022/04/08 09:10:31;;;;;;;17.08;2.47;;;;;;;;;;5019738;28;20034;-67
2022/04/08 09:12:57;;;;;;;12.98;2.53;;;;;;;;;;5021030;28;20104;-66
2022/04/08 09:15:24;;;;;;;15.07;2.80;;;;;;;;;;5018401;28;20116;-67
2022/04/08 09:17:49;;;;;;;17.35;2.90;;;;;;;;;;5040264;28;20388;-66
2022/04/08 09:20:14;;;;;;;14.20;2.33;;;;;;;;;;5020590;28;20199;-67
2022/04/08 09:22:40;;;;;;;12.90;2.67;;;;;;;;;;5022402;28;20053;-67
2022/04/08 09:25:08;;;;;;;16.85;2.65;;;;;;;;;;5033657;28;20536;-69
2022/04/08 09:27:34;;;;;;;15.43;3.20;;;;;;;;;;5019650;28;20033;-67
2022/04/08 09:29:59;;;;;;;15.65;3.67;;;;;;;;;;5017617;28;20060;-67
2022/04/08 09:32:25;;;;;;;17.85;2.75;;;;;;;;;;5012071;28;20106;-66
2022/04/08 09:34:51;;;;;;;17.83;2.42;;;;;;;;;;5019942;28;20035;-66
2022/04/08 09:37:17;;;;;;;25.65;3.72;;;;;;;;;;5016662;28;20029;-67
2022/04/08 09:39:56;;;;;;;17.90;2.58;;;;;;;;;;5019080;28;20045;-67
2022/04/08 09:42:22;;;;;;;11.65;2.55;;;;;;;;;;5020388;28;20033;-67
2022/04/08 09:44:48;;;;;;;11.77;2.47;;;;;;;;;;5020190;28;20039;-67
2022/04/08 09:47:15;;;;;;;15.95;2.75;;;;;;;;;;5021778;28;20481;-66
2022/04/08 09:49:43;;;;;;;15.18;2.50;;;;;;;;;;5019836;28;20041;-66
2022/04/08 09:52:09;;;;;;;16.13;2.65;;;;;;;;;;5020185;28;20103;-67
2022/04/08 09:54:37;;;;;;;13.95;1.98;;;;;;;;;;5019889;28;20028;-68
2022/04/08 09:57:05;;;;;;;18.33;3.00;;;;;;;;;;5020931;28;20048;-68
2022/04/08 09:59:34;;;;;;;23.65;2.83;;;;;;;;;;5020789;28;20041;-68
2022/04/08 10:02:01;;;;;;;12.70;2.97;;;;;;;;;;5022831;28;20036;-67
2022/04/08 10:04:26;;;;;;;15.43;2.38;;;;;;;;;;5020483;28;20080;-67
2022/04/08 10:06:53;;;;;;;19.98;2.67;;;;;;;;;;5018356;28;20037;-68
2022/04/08 10:09:31;;;;;;;13.65;2.20;;;;;;;;;;5022515;28;20094;-67
2022/04/08 10:11:57;;;;;;;15.07;2.30;;;;;;;;;;5020464;28;20033;-66
2022/04/08 10:14:41;;;;;;;10.68;1.95;;;;;;;;;;5021100;28;20078;-67
2022/04/08 10:17:07;;;;;;;17.20;2.50;;;;;;;;;;5022135;28;20048;-67
2022/04/08 10:19:33;;;;;;;12.85;2.35;;;;;;;;;;5022738;28;20028;-67
2022/04/08 10:22:00;;;;;;;15.93;2.65;;;;;;;;;;5022130;28;20017;-67
2022/04/08 10:24:30;;;;;;;14.52;2.75;;;;;;;;;;5005551;28;20123;-67
2022/04/08 10:27:01;;;;;;;12.70;2.30;;;;;;;;;;5020167;28;20215;-67
2022/04/08 10:29:33;;;;;;;17.85;2.70;;;;;;;;;;5019170;28;20032;-67
2022/04/08 10:32:02;;;;;;;13.02;2.53;;;;;;;;;;5019456;28;20033;-67
2022/04/08 10:34:28;;;;;;;14.00;2.33;;;;;;;;;;5019306;28;20100;-67
2022/04/08 10:36:59;;;;;;;15.00;2.28;;;;;;;;;;5019859;28;20397;-66
2022/04/08 10:39:26;;;;;;;19.08;2.65;;;;;;;;;;5020768;28;20108;-67
2022/04/08 10:41:52;;;;;;;16.90;2.70;;;;;;;;;;5021893;28;20025;-67
2022/04/08 10:44:37;;;;;;;20.25;3.53;;;;;;;;;;5048289;28;20029;-68
2022/04/08 10:47:10;;;;;;;13.52;2.45;;;;;;;;;;5019772;28;20641;-67
2022/04/08 10:49:47;;;;;;;14.25;2.78;;;;;;;;;;5018876;28;20065;-67
2022/04/08 10:52:15;;;;;;;17.15;3.55;;;;;;;;;;5018006;28;20060;-67
2022/04/08 10:54:41;;;;;;;11.88;2.63;;;;;;;;;;5020044;28;20035;-66
2022/04/08 10:57:06;;;;;;;13.90;2.80;;;;;;;;;;5019481;28;20033;-67
2022/04/08 10:59:32;;;;;;;11.65;1.95;;;;;;;;;;5018227;28;20100;-69
2022/04/08 11:02:06;;;;;;;16.80;2.33;;;;;;;;;;5019730;28;20029;-67
2022/04/08 11:04:31;;;;;;;14.70;2.15;;;;;;;;;;5036786;28;20501;-68
2022/04/08 11:07:05;;;;;;;17.38;2.33;;;;;;;;;;5017030;28;20098;-67
2022/04/08 11:09:31;;;;;;;11.90;1.95;;;;;;;;;;5016928;28;20274;-68
2022/04/08 11:11:56;;;;;;;14.98;2.72;;;;;;;;;;5004342;28;20042;-67
2022/04/08 11:14:21;;;;;;;10.63;2.20;;;;;;;;;;5019384;28;20124;-66
2022/04/08 11:16:47;;;;;;;7.63;1.77;;;;;;;;;;5016752;28;20033;-66
2022/04/08 11:19:13;;;;;;;14.18;2.80;;;;;;;;;;5004702;28;20376;-67
2022/04/08 11:21:38;;;;;;;23.92;2.47;;;;;;;;;;5018682;28;20457;-68
2022/04/08 11:24:11;;;;;;;13.52;2.10;;;;;;;;;;5004632;28;20448;-66
2022/04/08 11:26:48;;;;;;;12.10;2.08;;;;;;;;;;5017677;28;20875;-66
2022/04/08 11:29:16;;;;;;;9.85;2.10;;;;;;;;;;5037539;28;20032;-67
2022/04/08 11:31:42;;;;;;;9.68;1.83;;;;;;;;;;5050928;28;20119;-67
2022/04/08 11:34:07;;;;;;;11.52;1.85;;;;;;;;;;5019931;28;20224;-68
2022/04/08 11:36:34;;;;;;;14.05;2.03;;;;;;;;;;5018057;28;20061;-67
2022/04/08 11:39:04;;;;;;;12.75;2.40;;;;;;;;;;5019921;28;20266;-66
2022/04/08 11:41:29;;;;;;;10.10;1.98;;;;;;;;;;5018666;28;20101;-67
2022/04/08 11:43:54;;;;;;;13.55;2.17;;;;;;;;;;5018544;28;20044;-66
2022/04/08 11:46:20;;;;;;;5.15;1.40;;;;;;;;;;5019276;28;20037;-67
2022/04/08 11:48:45;;;;;;;9.93;1.90;;;;;;;;;;5024187;28;20025;-65
2022/04/08 11:51:12;;;;;;;11.68;1.67;;;;;;;;;;5021735;28;20100;-67
2022/04/08 11:53:44;;;;;;;8.95;1.42;;;;;;;;;;5037832;28;20035;-68
2022/04/08 11:56:09;;;;;;;16.65;2.50;;;;;;;;;;5053996;28;20552;-68
2022/04/08 11:58:35;;;;;;;10.63;1.63;;;;;;;;;;5025972;28;20028;-67
2022/04/08 12:01:01;;;;;;;8.02;1.80;;;;;;;;;;5020610;28;20091;-67
2022/04/08 12:03:28;;;;;;;16.90;2.17;;;;;;;;;;5021932;28;20236;-67
2022/04/08 12:05:54;;;;;;;11.80;1.50;;;;;;;;;;5053790;28;20106;-66
2022/04/08 12:08:20;;;;;;;11.45;2.00;;;;;;;;;;5022343;28;20388;-67
2022/04/08 12:10:50;;;;;;;11.23;1.80;;;;;;;;;;5022541;28;20409;-68
2022/04/08 12:13:16;;;;;;;7.45;1.67;;;;;;;;;;5053093;28;20245;-67
2022/04/08 12:15:47;;;;;;;10.95;1.85;;;;;;;;;;5020186;28;20029;-67
2022/04/08 12:18:21;;;;;;;7.70;1.55;;;;;;;;;;5020680;28;20124;-67
2022/04/08 12:20:50;;;;;;;15.98;2.30;;;;;;;;;;5021133;28;20116;-68
2022/04/08 12:23:15;;;;;;;7.95;2.53;;;;;;;;;;5022299;28;20021;-67
2022/04/08 12:25:43;;;;;;;11.35;1.95;;;;;;;;;;5022509;28;20063;-66
2022/04/08 12:28:14;;;;;;;9.98;1.70;;;;;;;;;;5021497;28;20116;-66
2022/04/08 12:30:39;;;;;;;11.68;2.00;;;;;;;;;;5022793;28;20585;-66
2022/04/08 12:33:05;;;;;;;6.18;1.50;;;;;;;;;;5020901;28;20051;-67
2022/04/08 12:35:31;;;;;;;11.63;2.30;;;;;;;;;;5022757;28;20396;-67
2022/04/08 12:37:59;;;;;;;13.68;2.13;;;;;;;;;;5021320;28;20048;-68
2022/04/08 12:40:24;;;;;;;13.82;2.05;;;;;;;;;;5019093;28;20033;-67
2022/04/08 12:42:50;;;;;;;9.43;1.83;;;;;;;;;;5021028;28;20052;-66
2022/04/08 12:45:17;;;;;;;12.52;2.25;;;;;;;;;;5018467;28;20021;-67
2022/04/08 12:47:46;;;;;;;12.85;1.95;;;;;;;;;;5023000;28;20479;-66
2022/04/08 12:50:12;;;;;;;8.93;1.70;;;;;;;;;;5019891;28;20480;-67
2022/04/08 12:52:37;;;;;;;18.77;2.15;;;;;;;;;;5023407;28;20691;-67
2022/04/08 12:55:03;;;;;;;9.82;1.80;;;;;;;;;;5019105;28;20175;-67
2022/04/08 12:57:32;;;;;;;10.30;1.52;;;;;;;;;;5019222;28;20226;-67
2022/04/08 12:59:57;;;;;;;13.15;2.10;;;;;;;;;;5021923;28;20845;-68
2022/04/08 13:02:23;;;;;;;6.70;1.40;;;;;;;;;;5022014;28;20124;-67
2022/04/08 13:04:48;;;;;;;7.72;1.38;;;;;;;;;;5051787;28;20140;-68
2022/04/08 13:07:15;;;;;;;8.85;1.77;;;;;;;;;;5027386;28;20029;-67
2022/04/08 13:09:40;;;;;;;8.60;1.40;;;;;;;;;;5017731;28;20306;-67
2022/04/08 13:12:05;;;;;;;6.05;1.50;;;;;;;;;;5021268;28;20083;-68
2022/04/08 13:14:31;;;;;;;15.05;2.30;;;;;;;;;;5020705;28;20062;-68
2022/04/08 13:16:57;;;;;;;10.55;1.50;;;;;;;;;;5023601;28;20335;-68
2022/04/08 13:19:22;;;;;;;14.63;1.55;;;;;;;;;;5020035;28;20091;-68
2022/04/08 13:21:48;;;;;;;7.80;1.67;;;;;;;;;;5020926;28;20331;-68
2022/04/08 13:24:13;;;;;;;9.02;1.55;;;;;;;;;;5018692;28;20048;-68
2022/04/08 13:26:39;;;;;;;8.95;2.10;;;;;;;;;;5006296;28;20033;-67
2022/04/08 13:29:06;;;;;;;9.32;1.58;;;;;;;;;;5019702;28;20025;-67
2022/04/08 13:31:32;;;;;;;9.63;1.50;;;;;;;;;;5020252;28;20555;-67
2022/04/08 13:33:57;;;;;;;7.95;1.55;;;;;;;;;;5019860;28;20041;-67
2022/04/08 13:36:26;;;;;;;12.48;1.67;;;;;;;;;;5021050;28;20400;-68
2022/04/08 13:38:53;;;;;;;7.07;1.23;;;;;;;;;;5051787;28;22094;-67
2022/04/08 13:41:19;;;;;;;9.30;1.40;;;;;;;;;;5020549;28;20184;-67
2022/04/08 13:43:45;;;;;;;9.82;1.60;;;;;;;;;;5017186;28;20454;-66
2022/04/08 13:46:13;;;;;;;9.00;1.70;;;;;;;;;;5015758;28;20021;-67
2022/04/08 13:48:38;;;;;;;5.47;1.00;;;;;;;;;;5018198;28;20586;-66
2022/04/08 13:51:04;;;;;;;8.18;1.55;;;;;;;;;;5033577;28;20123;-67
2022/04/08 13:53:30;;;;;;;9.35;1.23;;;;;;;;;;5023012;28;20032;-67
2022/04/08 13:55:55;;;;;;;17.27;2.58;;;;;;;;;;5026458;28;20048;-68
2022/04/08 13:58:20;;;;;;;9.00;1.50;;;;;;;;;;5021909;28;20110;-67
2022/04/08 14:00:48;;;;;;;8.82;2.22;;;;;;;;;;5019140;28;20044;-67
2022/04/08 14:03:13;;;;;;;13.38;1.80;;;;;;;;;;5017410;28;20029;-68
2022/04/08 14:05:38;;;;;;;9.25;1.70;;;;;;;;;;5021515;28;20197;-68
2022/04/08 14:08:08;;;;;;;7.75;1.35;;;;;;;;;;5019713;28;20065;-67
2022/04/08 14:10:36;;;;;;;6.25;1.40;;;;;;;;;;5020017;28;20029;-68
2022/04/08 14:13:03;;;;;;;8.52;1.55;;;;;;;;;;5022027;28;20114;-66
2022/04/08 14:15:29;;;;;;;9.98;1.60;;;;;;;;;;5018596;28;20025;-67
2022/04/08 14:17:55;;;;;;;9.07;1.67;;;;;;;;;;5019317;28;20050;-67
2022/04/08 14:20:20;;;;;;;11.75;1.58;;;;;;;;;;5018198;28;20411;-67
2022/04/08 14:22:48;;;;;;;10.50;1.88;;;;;;;;;;5020228;28;20461;-68
2022/04/08 14:25:16;;;;;;;10.40;1.95;;;;;;;;;;5018062;28;20381;-67
2022/04/08 14:27:42;;;;;;;11.32;2.10;;;;;;;;;;5018645;28;20512;-67